sensor_id;sensor_type;location;lat;lon;timestamp;pressure;altitude;pressure_sealevel;temperature;humidity
74778;BME280;63298;53.164;8.610;2023-08-06T00:00:38;100824.41;;;17.05;71.48
74778;BME280;63298;53.164;8.610;2023-08-06T00:03:05;100839.44;;;17.04;71.59
74778;BME280;63298;53.164;8.610;2023-08-06T00:05:31;100833.88;;;16.99;72.11
74778;BME280;63298;53.164;8.610;2023-08-06T00:07:57;100831.09;;;16.99;71.88
74778;BME280;63298;53.164;8.610;2023-08-06T00:10:23;100836.91;;;17.02;71.93
74778;BME280;63298;53.164;8.610;2023-08-06T00:12:49;100830.25;;;17.03;72.40
74778;BME280;63298;53.164;8.610;2023-08-06T00:15:14;100831.91;;;17.04;72.04
74778;BME280;63298;53.164;8.610;2023-08-06T00:17:40;100817.41;;;17.07;72.05
74778;BME280;63298;53.164;8.610;2023-08-06T00:20:06;100832.19;;;17.13;72.01
74778;BME280;63298;53.164;8.610;2023-08-06T00:22:36;100829.13;;;17.09;72.20
74778;BME280;63298;53.164;8.610;2023-08-06T00:25:03;100833.31;;;17.07;72.14
74778;BME280;63298;53.164;8.610;2023-08-06T00:27:30;100832.75;;;17.05;72.32
74778;BME280;63298;53.164;8.610;2023-08-06T00:29:55;100819.94;;;16.99;72.17
74778;BME280;63298;53.164;8.610;2023-08-06T00:32:21;100818.25;;;16.98;72.26
74778;BME280;63298;53.164;8.610;2023-08-06T00:34:47;100821.88;;;16.98;72.18
74778;BME280;63298;53.164;8.610;2023-08-06T00:37:13;100820.78;;;16.99;72.28
74778;BME280;63298;53.164;8.610;2023-08-06T00:39:38;100816.03;;;17.00;72.32
74778;BME280;63298;53.164;8.610;2023-08-06T00:42:03;100823.28;;;17.01;72.62
74778;BME280;63298;53.164;8.610;2023-08-06T00:44:29;100811.31;;;16.95;72.41
74778;BME280;63298;53.164;8.610;2023-08-06T00:46:55;100826.63;;;16.93;72.62
74778;BME280;63298;53.164;8.610;2023-08-06T00:49:20;100816.31;;;16.88;72.73
74778;BME280;63298;53.164;8.610;2023-08-06T00:51:47;100816.63;;;16.87;72.62
74778;BME280;63298;53.164;8.610;2023-08-06T00:54:12;100814.94;;;16.86;72.74
74778;BME280;63298;53.164;8.610;2023-08-06T00:56:38;100807.41;;;16.81;72.78
74778;BME280;63298;53.164;8.610;2023-08-06T00:59:06;100799.06;;;16.76;73.01
74778;BME280;63298;53.164;8.610;2023-08-06T01:01:32;100802.38;;;16.78;72.87
74778;BME280;63298;53.164;8.610;2023-08-06T01:03:57;100792.66;;;16.75;73.09
74778;BME280;63298;53.164;8.610;2023-08-06T01:14:50;100794.88;;;16.68;73.90
74778;BME280;63298;53.164;8.610;2023-08-06T01:17:20;100789.03;;;16.70;73.36
74778;BME280;63298;53.164;8.610;2023-08-06T01:19:45;100778.72;;;16.70;73.25
74778;BME280;63298;53.164;8.610;2023-08-06T01:22:10;100771.47;;;16.69;73.12
74778;BME280;63298;53.164;8.610;2023-08-06T01:24:36;100765.38;;;16.67;73.49
74778;BME280;63298;53.164;8.610;2023-08-06T01:27:10;100770.38;;;16.60;73.42
74778;BME280;63298;53.164;8.610;2023-08-06T01:32:03;100778.44;;;16.62;73.97
74778;BME280;63298;53.164;8.610;2023-08-06T01:34:31;100771.47;;;16.59;73.87
74778;BME280;63298;53.164;8.610;2023-08-06T01:36:58;100771.75;;;16.68;73.88
74778;BME280;63298;53.164;8.610;2023-08-06T01:39:24;100766.16;;;16.73;73.73
74778;BME280;63298;53.164;8.610;2023-08-06T01:41:50;100762.84;;;16.71;73.84
74778;BME280;63298;53.164;8.610;2023-08-06T01:44:15;100764.22;;;16.68;73.62
74778;BME280;63298;53.164;8.610;2023-08-06T01:46:41;100755.31;;;16.66;73.92
74778;BME280;63298;53.164;8.610;2023-08-06T01:49:06;100762.56;;;16.67;73.76
74778;BME280;63298;53.164;8.610;2023-08-06T01:51:31;100753.38;;;16.67;73.93
74778;BME280;63298;53.164;8.610;2023-08-06T01:53:57;100758.09;;;16.71;73.98
74778;BME280;63298;53.164;8.610;2023-08-06T01:56:22;100755.84;;;16.73;74.06
74778;BME280;63298;53.164;8.610;2023-08-06T01:58:47;100762.53;;;16.77;73.96
74778;BME280;63298;53.164;8.610;2023-08-06T02:01:13;100757.53;;;16.74;74.10
74778;BME280;63298;53.164;8.610;2023-08-06T02:03:38;100753.66;;;16.75;74.19
74778;BME280;63298;53.164;8.610;2023-08-06T02:06:03;100754.75;;;16.74;74.01
74778;BME280;63298;53.164;8.610;2023-08-06T02:08:29;100756.97;;;16.77;73.92
74778;BME280;63298;53.164;8.610;2023-08-06T02:10:54;100758.66;;;16.78;73.94
74778;BME280;63298;53.164;8.610;2023-08-06T02:13:19;100765.63;;;16.76;74.12
74778;BME280;63298;53.164;8.610;2023-08-06T02:15:46;100764.50;;;16.77;73.87
74778;BME280;63298;53.164;8.610;2023-08-06T02:18:11;100764.50;;;16.77;73.92
74778;BME280;63298;53.164;8.610;2023-08-06T02:20:36;100763.69;;;16.76;74.00
74778;BME280;63298;53.164;8.610;2023-08-06T02:23:02;100746.41;;;16.74;73.93
74778;BME280;63298;53.164;8.610;2023-08-06T02:25:27;100739.72;;;16.75;74.07
74778;BME280;63298;53.164;8.610;2023-08-06T02:27:52;100748.06;;;16.75;73.96
74778;BME280;63298;53.164;8.610;2023-08-06T02:30:17;100741.38;;;16.76;73.93
74778;BME280;63298;53.164;8.610;2023-08-06T02:32:43;100739.13;;;16.78;74.05
74778;BME280;63298;53.164;8.610;2023-08-06T02:35:11;100746.38;;;16.84;73.97
74778;BME280;63298;53.164;8.610;2023-08-06T02:37:37;100734.13;;;16.86;74.19
74778;BME280;63298;53.164;8.610;2023-08-06T02:40:02;100734.13;;;16.86;73.98
74778;BME280;63298;53.164;8.610;2023-08-06T02:42:28;100736.66;;;16.87;74.10
74778;BME280;63298;53.164;8.610;2023-08-06T02:44:53;100722.72;;;16.87;74.14
74778;BME280;63298;53.164;8.610;2023-08-06T02:47:19;100727.44;;;16.87;73.94
74778;BME280;63298;53.164;8.610;2023-08-06T02:49:44;100730.78;;;16.83;74.09
74778;BME280;63298;53.164;8.610;2023-08-06T02:52:10;100730.78;;;16.78;73.99
74778;BME280;63298;53.164;8.610;2023-08-06T02:54:36;100731.34;;;16.75;74.17
74778;BME280;63298;53.164;8.610;2023-08-06T02:57:01;100730.53;;;16.70;74.31
74778;BME280;63298;53.164;8.610;2023-08-06T02:59:27;100731.94;;;16.72;74.51
74778;BME280;63298;53.164;8.610;2023-08-06T03:01:52;100729.41;;;16.71;74.28
74778;BME280;63298;53.164;8.610;2023-08-06T03:04:17;100731.09;;;16.72;74.39
74778;BME280;63298;53.164;8.610;2023-08-06T03:06:43;100717.44;;;16.70;74.17
74778;BME280;63298;53.164;8.610;2023-08-06T03:09:09;100718.53;;;16.69;74.29
74778;BME280;63298;53.164;8.610;2023-08-06T03:11:34;100713.81;;;16.70;74.43
74778;BME280;63298;53.164;8.610;2023-08-06T03:14:00;100701.28;;;16.72;74.45
74778;BME280;63298;53.164;8.610;2023-08-06T03:16:25;100703.22;;;16.72;74.53
74778;BME280;63298;53.164;8.610;2023-08-06T03:18:51;100709.06;;;16.70;74.40
74778;BME280;63298;53.164;8.610;2023-08-06T03:21:16;100704.63;;;16.69;74.59
74778;BME280;63298;53.164;8.610;2023-08-06T03:23:42;100707.66;;;16.68;74.44
74778;BME280;63298;53.164;8.610;2023-08-06T03:26:07;100702.41;;;16.66;74.65
74778;BME280;63298;53.164;8.610;2023-08-06T03:28:32;100700.47;;;16.62;74.76
74778;BME280;63298;53.164;8.610;2023-08-06T03:31:02;100697.94;;;16.60;74.89
74778;BME280;63298;53.164;8.610;2023-08-06T03:33:27;100680.38;;;16.55;74.70
74778;BME280;63298;53.164;8.610;2023-08-06T03:35:53;100681.22;;;16.55;74.74
74778;BME280;63298;53.164;8.610;2023-08-06T03:38:18;100677.59;;;16.50;74.79
74778;BME280;63298;53.164;8.610;2023-08-06T03:40:43;100668.69;;;16.42;74.89
74778;BME280;63298;53.164;8.610;2023-08-06T03:43:09;100673.13;;;16.33;75.24
74778;BME280;63298;53.164;8.610;2023-08-06T03:45:34;100676.50;;;16.30;74.87
74778;BME280;63298;53.164;8.610;2023-08-06T03:47:59;100680.69;;;16.28;75.09
74778;BME280;63298;53.164;8.610;2023-08-06T03:50:25;100668.72;;;16.27;75.05
74778;BME280;63298;53.164;8.610;2023-08-06T03:52:50;100664.78;;;16.33;75.19
74778;BME280;63298;53.164;8.610;2023-08-06T03:55:15;100670.66;;;16.32;75.31
74778;BME280;63298;53.164;8.610;2023-08-06T03:57:41;100675.66;;;16.30;75.42
74778;BME280;63298;53.164;8.610;2023-08-06T04:00:06;100666.19;;;16.31;75.46
74778;BME280;63298;53.164;8.610;2023-08-06T04:02:32;100665.09;;;16.32;75.55
74778;BME280;63298;53.164;8.610;2023-08-06T04:04:57;100662.31;;;16.32;75.28
74778;BME280;63298;53.164;8.610;2023-08-06T04:07:23;100663.97;;;16.33;75.26
74778;BME280;63298;53.164;8.610;2023-08-06T04:09:57;100661.75;;;16.30;75.33
74778;BME280;63298;53.164;8.610;2023-08-06T04:12:23;100666.19;;;16.31;75.19
74778;BME280;63298;53.164;8.610;2023-08-06T04:14:49;100668.41;;;16.34;75.43
74778;BME280;63298;53.164;8.610;2023-08-06T04:17:14;100670.09;;;16.35;75.47
74778;BME280;63298;53.164;8.610;2023-08-06T04:19:39;100667.31;;;16.35;75.48
74778;BME280;63298;53.164;8.610;2023-08-06T04:22:05;100675.66;;;16.35;75.50
74778;BME280;63298;53.164;8.610;2023-08-06T04:24:30;100667.31;;;16.35;75.66
74778;BME280;63298;53.164;8.610;2023-08-06T04:26:55;100662.31;;;16.37;75.38
74778;BME280;63298;53.164;8.610;2023-08-06T04:29:21;100663.41;;;16.36;75.63
74778;BME280;63298;53.164;8.610;2023-08-06T04:31:46;100660.63;;;16.26;75.80
74778;BME280;63298;53.164;8.610;2023-08-06T04:34:11;100651.44;;;16.15;75.99
74778;BME280;63298;53.164;8.610;2023-08-06T04:36:37;100644.78;;;16.11;75.92
74778;BME280;63298;53.164;8.610;2023-08-06T04:39:02;100649.50;;;16.11;76.09
74778;BME280;63298;53.164;8.610;2023-08-06T04:41:27;100653.13;;;16.06;76.26
74778;BME280;63298;53.164;8.610;2023-08-06T04:43:57;100662.84;;;16.04;76.35
74778;BME280;63298;53.164;8.610;2023-08-06T04:46:25;100674.53;;;16.06;76.46
74778;BME280;63298;53.164;8.610;2023-08-06T04:48:50;100674.53;;;16.11;76.47
74778;BME280;63298;53.164;8.610;2023-08-06T04:51:16;100659.25;;;16.08;76.23
74778;BME280;63298;53.164;8.610;2023-08-06T04:53:41;100673.97;;;16.14;76.31
74778;BME280;63298;53.164;8.610;2023-08-06T04:56:06;100673.97;;;16.14;76.73
74778;BME280;63298;53.164;8.610;2023-08-06T04:58:32;100668.41;;;16.14;76.64
74778;BME280;63298;53.164;8.610;2023-08-06T05:00:57;100669.56;;;16.18;76.69
74778;BME280;63298;53.164;8.610;2023-08-06T05:03:23;100671.19;;;16.19;76.43
74778;BME280;63298;53.164;8.610;2023-08-06T05:05:48;100672.34;;;16.23;76.70
74778;BME280;63298;53.164;8.610;2023-08-06T05:08:15;100675.13;;;16.28;76.70
74778;BME280;63298;53.164;8.610;2023-08-06T05:10:42;100680.38;;;16.34;76.58
74778;BME280;63298;53.164;8.610;2023-08-06T05:13:08;100680.66;;;16.38;76.56
74778;BME280;63298;53.164;8.610;2023-08-06T05:15:33;100669.50;;;16.43;76.49
74778;BME280;63298;53.164;8.610;2023-08-06T05:17:58;100673.97;;;16.49;76.26
74778;BME280;63298;53.164;8.610;2023-08-06T05:20:24;100671.47;;;16.53;76.36
74778;BME280;63298;53.164;8.610;2023-08-06T05:22:49;100681.78;;;16.52;75.79
74778;BME280;63298;53.164;8.610;2023-08-06T05:25:14;100679.25;;;16.51;76.30
74778;BME280;63298;53.164;8.610;2023-08-06T05:27:40;100679.00;;;16.47;76.27
74778;BME280;63298;53.164;8.610;2023-08-06T05:30:06;100681.78;;;16.42;76.48
74778;BME280;63298;53.164;8.610;2023-08-06T05:32:31;100682.06;;;16.40;76.30
74778;BME280;63298;53.164;8.610;2023-08-06T05:34:56;100685.69;;;16.41;76.97
74778;BME280;63298;53.164;8.610;2023-08-06T05:37:22;100681.78;;;16.42;76.38
74778;BME280;63298;53.164;8.610;2023-08-06T05:39:47;100670.91;;;16.40;76.70
74778;BME280;63298;53.164;8.610;2023-08-06T05:42:13;100672.88;;;16.40;76.83
74778;BME280;63298;53.164;8.610;2023-08-06T05:44:38;100680.09;;;16.46;76.76
74778;BME280;63298;53.164;8.610;2023-08-06T05:47:03;100677.31;;;16.51;76.99
74778;BME280;63298;53.164;8.610;2023-08-06T05:49:29;100670.94;;;16.61;76.41
74778;BME280;63298;53.164;8.610;2023-08-06T05:51:54;100668.41;;;16.69;76.65
74778;BME280;63298;53.164;8.610;2023-08-06T05:54:19;100681.22;;;16.75;76.62
74778;BME280;63298;53.164;8.610;2023-08-06T05:56:45;100683.41;;;16.78;76.60
74778;BME280;63298;53.164;8.610;2023-08-06T05:59:10;100685.09;;;16.84;76.46
74778;BME280;63298;53.164;8.610;2023-08-06T06:01:35;100684.78;;;16.91;76.14
74778;BME280;63298;53.164;8.610;2023-08-06T06:04:01;100680.03;;;16.97;76.10
74778;BME280;63298;53.164;8.610;2023-08-06T06:06:26;100678.91;;;16.98;76.20
74778;BME280;63298;53.164;8.610;2023-08-06T06:08:51;100675.56;;;17.01;75.98
74778;BME280;63298;53.164;8.610;2023-08-06T06:11:17;100675.84;;;16.99;76.21
74778;BME280;63298;53.164;8.610;2023-08-06T06:13:42;100680.56;;;17.04;75.93
74778;BME280;63298;53.164;8.610;2023-08-06T06:16:07;100671.09;;;17.05;75.92
74778;BME280;63298;53.164;8.610;2023-08-06T06:18:32;100668.84;;;17.12;75.69
74778;BME280;63298;53.164;8.610;2023-08-06T06:20:58;100666.06;;;17.12;75.60
74778;BME280;63298;53.164;8.610;2023-08-06T06:23:23;100655.72;;;17.07;75.66
74778;BME280;63298;53.164;8.610;2023-08-06T06:25:49;100659.91;;;17.15;75.92
74778;BME280;63298;53.164;8.610;2023-08-06T06:28:15;100659.59;;;17.21;75.71
74778;BME280;63298;53.164;8.610;2023-08-06T06:30:41;100675.13;;;17.38;75.47
74778;BME280;63298;53.164;8.610;2023-08-06T06:33:07;100684.31;;;17.43;75.68
74778;BME280;63298;53.164;8.610;2023-08-06T06:35:32;100669.47;;;17.53;75.18
74778;BME280;63298;53.164;8.610;2023-08-06T06:37:57;100671.94;;;17.69;75.25
74778;BME280;63298;53.164;8.610;2023-08-06T06:40:23;100668.19;;;17.84;75.06
74778;BME280;63298;53.164;8.610;2023-08-06T06:42:48;100673.41;;;17.96;74.82
74778;BME280;63298;53.164;8.610;2023-08-06T06:45:13;100682.28;;;18.03;74.50
74778;BME280;63298;53.164;8.610;2023-08-06T06:47:39;100678.38;;;18.04;74.48
74778;BME280;63298;53.164;8.610;2023-08-06T06:50:04;100679.19;;;18.09;74.33
74778;BME280;63298;53.164;8.610;2023-08-06T06:52:33;100671.66;;;18.10;74.04
74778;BME280;63298;53.164;8.610;2023-08-06T06:55:01;100668.91;;;18.05;73.95
74778;BME280;63298;53.164;8.610;2023-08-06T06:57:27;100678.06;;;18.10;74.07
74778;BME280;63298;53.164;8.610;2023-08-06T06:59:52;100686.09;;;18.17;74.12
74778;BME280;63298;53.164;8.610;2023-08-06T07:02:17;100679.91;;;18.25;74.03
74778;BME280;63298;53.164;8.610;2023-08-06T07:04:43;100683.19;;;18.32;73.98
74778;BME280;63298;53.164;8.610;2023-08-06T07:07:08;100686.53;;;18.34;74.01
74778;BME280;63298;53.164;8.610;2023-08-06T07:09:33;100682.84;;;18.39;73.63
74778;BME280;63298;53.164;8.610;2023-08-06T07:11:59;100682.56;;;18.35;73.68
74778;BME280;63298;53.164;8.610;2023-08-06T07:14:25;100692.59;;;18.41;73.33
74778;BME280;63298;53.164;8.610;2023-08-06T07:16:51;100690.34;;;18.43;73.01
74778;BME280;63298;53.164;8.610;2023-08-06T07:19:16;100698.50;;;18.40;73.18
74778;BME280;63298;53.164;8.610;2023-08-06T07:21:41;100699.63;;;18.39;73.22
74778;BME280;63298;53.164;8.610;2023-08-06T07:24:07;100695.69;;;18.40;72.97
74778;BME280;63298;53.164;8.610;2023-08-06T07:26:32;100700.13;;;18.41;73.17
74778;BME280;63298;53.164;8.610;2023-08-06T07:28:57;100694.03;;;18.39;73.05
74778;BME280;63298;53.164;8.610;2023-08-06T07:31:23;100699.00;;;18.42;72.70
74778;BME280;63298;53.164;8.610;2023-08-06T07:33:48;100698.34;;;18.55;72.85
74778;BME280;63298;53.164;8.610;2023-08-06T07:36:14;100694.72;;;18.60;72.00
74778;BME280;63298;53.164;8.610;2023-08-06T07:38:40;100696.50;;;18.40;72.17
74778;BME280;63298;53.164;8.610;2023-08-06T07:41:06;100698.63;;;18.25;72.52
74778;BME280;63298;53.164;8.610;2023-08-06T07:43:33;100695.56;;;18.21;72.84
74778;BME280;63298;53.164;8.610;2023-08-06T07:46:00;100704.47;;;18.23;72.64
74778;BME280;63298;53.164;8.610;2023-08-06T07:48:26;100704.19;;;18.25;72.51
74778;BME280;63298;53.164;8.610;2023-08-06T07:50:52;100708.13;;;18.24;72.23
74778;BME280;63298;53.164;8.610;2023-08-06T07:53:18;100701.09;;;18.26;72.45
74778;BME280;63298;53.164;8.610;2023-08-06T07:55:47;100704.13;;;18.35;72.21
74778;BME280;63298;53.164;8.610;2023-08-06T07:58:12;100704.84;;;18.45;72.31
74778;BME280;63298;53.164;8.610;2023-08-06T08:00:37;100698.63;;;18.59;71.88
74778;BME280;63298;53.164;8.610;2023-08-06T08:03:03;100690.75;;;18.61;71.76
74778;BME280;63298;53.164;8.610;2023-08-06T08:05:28;100693.03;;;18.59;70.98
74778;BME280;63298;53.164;8.610;2023-08-06T08:07:53;100686.41;;;18.49;71.25
74778;BME280;63298;53.164;8.610;2023-08-06T08:10:19;100690.28;;;18.53;71.33
74778;BME280;63298;53.164;8.610;2023-08-06T08:12:44;100684.84;;;18.67;71.36
74778;BME280;63298;53.164;8.610;2023-08-06T08:15:09;100684.28;;;18.94;71.07
74778;BME280;63298;53.164;8.610;2023-08-06T08:17:35;100692.63;;;19.23;70.78
74778;BME280;63298;53.164;8.610;2023-08-06T08:20:00;100689.88;;;19.41;70.20
74778;BME280;63298;53.164;8.610;2023-08-06T08:22:25;100677.53;;;19.66;69.84
74778;BME280;63298;53.164;8.610;2023-08-06T08:24:50;100667.44;;;19.84;69.43
74778;BME280;63298;53.164;8.610;2023-08-06T08:27:16;100662.16;;;20.01;69.22
74778;BME280;63298;53.164;8.610;2023-08-06T08:29:41;100666.22;;;20.27;68.82
74778;BME280;63298;53.164;8.610;2023-08-06T08:32:07;100668.47;;;20.44;68.66
74778;BME280;63298;53.164;8.610;2023-08-06T08:34:33;100657.78;;;20.46;68.08
74778;BME280;63298;53.164;8.610;2023-08-06T08:36:58;100652.19;;;20.46;67.87
74778;BME280;63298;53.164;8.610;2023-08-06T08:39:24;100655.16;;;20.36;67.58
74778;BME280;63298;53.164;8.610;2023-08-06T08:41:49;100664.94;;;20.20;67.92
74778;BME280;63298;53.164;8.610;2023-08-06T08:44:16;100663.88;;;20.35;68.12
74778;BME280;63298;53.164;8.610;2023-08-06T08:46:43;100649.56;;;20.36;67.46
74778;BME280;63298;53.164;8.610;2023-08-06T08:49:09;100653.78;;;20.34;67.45
74778;BME280;63298;53.164;8.610;2023-08-06T08:51:36;100645.03;;;20.21;67.47
74778;BME280;63298;53.164;8.610;2023-08-06T08:54:07;100653.09;;;20.23;66.13
74778;BME280;63298;53.164;8.610;2023-08-06T08:56:32;100640.47;;;20.25;67.04
74778;BME280;63298;53.164;8.610;2023-08-06T08:58:57;100625.41;;;20.21;67.31
74778;BME280;63298;53.164;8.610;2023-08-06T09:01:23;100649.78;;;20.40;67.22
74778;BME280;63298;53.164;8.610;2023-08-06T09:03:49;100644.28;;;20.48;66.89
74778;BME280;63298;53.164;8.610;2023-08-06T09:06:15;100638.81;;;20.57;66.63
74778;BME280;63298;53.164;8.610;2023-08-06T09:08:47;100639.78;;;20.66;65.67
74778;BME280;63298;53.164;8.610;2023-08-06T09:11:16;100638.50;;;20.58;65.89
74778;BME280;63298;53.164;8.610;2023-08-06T09:13:42;100645.22;;;20.44;66.44
74778;BME280;63298;53.164;8.610;2023-08-06T09:16:07;100638.50;;;20.26;66.71
74778;BME280;63298;53.164;8.610;2023-08-06T09:18:32;100635.66;;;20.45;66.75
74778;BME280;63298;53.164;8.610;2023-08-06T09:20:58;100632.50;;;20.65;65.83
74778;BME280;63298;53.164;8.610;2023-08-06T09:23:30;100633.25;;;20.84;65.99
74778;BME280;63298;53.164;8.610;2023-08-06T09:25:57;100635.00;;;21.07;65.66
74778;BME280;63298;53.164;8.610;2023-08-06T09:28:22;100634.72;;;21.23;65.12
74778;BME280;63298;53.164;8.610;2023-08-06T09:30:48;100632.41;;;21.38;65.01
74778;BME280;63298;53.164;8.610;2023-08-06T09:33:17;100634.09;;;21.39;63.41
74778;BME280;63298;53.164;8.610;2023-08-06T09:35:45;100625.78;;;21.34;64.63
74778;BME280;63298;53.164;8.610;2023-08-06T09:38:10;100633.78;;;21.14;64.01
74778;BME280;63298;53.164;8.610;2023-08-06T09:40:36;100627.44;;;20.94;64.50
74778;BME280;63298;53.164;8.610;2023-08-06T09:43:02;100637.41;;;21.00;64.75
74778;BME280;63298;53.164;8.610;2023-08-06T09:45:33;100642.19;;;20.86;64.42
74778;BME280;63298;53.164;8.610;2023-08-06T09:48:02;100641.22;;;20.77;64.61
74778;BME280;63298;53.164;8.610;2023-08-06T09:50:30;100628.88;;;20.78;64.91
74778;BME280;63298;53.164;8.610;2023-08-06T09:52:56;100624.63;;;20.94;64.80
74778;BME280;63298;53.164;8.610;2023-08-06T09:55:22;100631.91;;;21.23;64.57
74778;BME280;63298;53.164;8.610;2023-08-06T09:57:49;100630.25;;;21.35;64.25
74778;BME280;63298;53.164;8.610;2023-08-06T10:00:14;100628.88;;;21.33;63.82
74778;BME280;63298;53.164;8.610;2023-08-06T10:02:40;100623.28;;;21.33;64.05
74778;BME280;63298;53.164;8.610;2023-08-06T10:05:07;100616.53;;;21.34;63.18
74778;BME280;63298;53.164;8.610;2023-08-06T10:07:33;100628.25;;;21.49;63.27
74778;BME280;63298;53.164;8.610;2023-08-06T10:09:59;100611.41;;;21.49;63.13
74778;BME280;63298;53.164;8.610;2023-08-06T10:12:26;100625.72;;;21.62;63.18
74778;BME280;63298;53.164;8.610;2023-08-06T10:14:55;100617.44;;;21.79;62.75
74778;BME280;63298;53.164;8.610;2023-08-06T10:17:23;100619.13;;;21.80;61.53
74778;BME280;63298;53.164;8.610;2023-08-06T10:19:50;100617.38;;;21.70;61.15
74778;BME280;63298;53.164;8.610;2023-08-06T10:22:17;100589.47;;;21.38;60.99
74778;BME280;63298;53.164;8.610;2023-08-06T10:24:56;100620.72;;;21.59;61.00
74778;BME280;63298;53.164;8.610;2023-08-06T10:27:30;100622.41;;;21.82;61.61
74778;BME280;63298;53.164;8.610;2023-08-06T10:32:48;100609.91;;;21.88;60.75
74778;BME280;63298;53.164;8.610;2023-08-06T10:38:08;100610.59;;;22.29;60.45
74778;BME280;63298;53.164;8.610;2023-08-06T10:40:34;100610.00;;;22.41;60.23
74778;BME280;63298;53.164;8.610;2023-08-06T10:43:04;100613.31;;;22.43;59.87
74778;BME280;63298;53.164;8.610;2023-08-06T10:45:29;100608.00;;;22.42;59.92
74778;BME280;63298;53.164;8.610;2023-08-06T10:47:55;100607.59;;;22.57;59.71
74778;BME280;63298;53.164;8.610;2023-08-06T10:50:20;100610.28;;;22.62;59.27
74778;BME280;63298;53.164;8.610;2023-08-06T10:52:47;100611.69;;;22.73;58.00
74778;BME280;63298;53.164;8.610;2023-08-06T10:55:32;100610.72;;;22.55;56.93
74778;BME280;63298;53.164;8.610;2023-08-06T10:57:58;100599.97;;;22.49;58.03
74778;BME280;63298;53.164;8.610;2023-08-06T11:00:23;100585.97;;;22.35;58.13
74778;BME280;63298;53.164;8.610;2023-08-06T11:02:49;100596.31;;;22.48;57.99
74778;BME280;63298;53.164;8.610;2023-08-06T11:05:15;100585.47;;;22.64;58.25
74778;BME280;63298;53.164;8.610;2023-08-06T11:07:40;100591.38;;;22.85;57.34
74778;BME280;63298;53.164;8.610;2023-08-06T11:10:07;100599.38;;;23.00;57.29
74778;BME280;63298;53.164;8.610;2023-08-06T11:12:33;100593.56;;;22.96;56.78
74778;BME280;63298;53.164;8.610;2023-08-06T11:15:00;100600.19;;;23.00;55.99
74778;BME280;63298;53.164;8.610;2023-08-06T11:17:28;100598.34;;;22.87;56.30
74778;BME280;63298;53.164;8.610;2023-08-06T11:19:53;100588.53;;;22.76;56.61
74778;BME280;63298;53.164;8.610;2023-08-06T11:22:21;100585.88;;;22.71;56.33
74778;BME280;63298;53.164;8.610;2023-08-06T11:24:46;100584.13;;;22.61;57.06
74778;BME280;63298;53.164;8.610;2023-08-06T11:27:12;100582.47;;;22.60;57.55
74778;BME280;63298;53.164;8.610;2023-08-06T11:29:38;100589.41;;;22.54;57.37
74778;BME280;63298;53.164;8.610;2023-08-06T11:32:04;100577.13;;;22.50;57.08
74778;BME280;63298;53.164;8.610;2023-08-06T11:34:30;100589.13;;;22.64;57.41
74778;BME280;63298;53.164;8.610;2023-08-06T11:36:56;100583.38;;;22.69;57.41
74778;BME280;63298;53.164;8.610;2023-08-06T11:39:22;100574.78;;;22.74;57.88
74778;BME280;63298;53.164;8.610;2023-08-06T11:41:48;100593.03;;;22.86;57.54
74778;BME280;63298;53.164;8.610;2023-08-06T11:44:13;100585.09;;;22.79;57.63
74778;BME280;63298;53.164;8.610;2023-08-06T11:46:55;100593.56;;;22.88;58.37
74778;BME280;63298;53.164;8.610;2023-08-06T11:49:20;100585.44;;;22.95;57.77
74778;BME280;63298;53.164;8.610;2023-08-06T11:51:45;100573.84;;;22.88;58.05
74778;BME280;63298;53.164;8.610;2023-08-06T11:54:11;100578.28;;;22.80;57.67
74778;BME280;63298;53.164;8.610;2023-08-06T11:56:36;100577.66;;;22.83;57.74
74778;BME280;63298;53.164;8.610;2023-08-06T11:59:01;100572.31;;;22.73;57.83
74778;BME280;63298;53.164;8.610;2023-08-06T12:01:27;100569.44;;;22.64;57.80
74778;BME280;63298;53.164;8.610;2023-08-06T12:03:58;100559.44;;;22.50;57.75
74778;BME280;63298;53.164;8.610;2023-08-06T12:06:27;100570.44;;;22.37;58.27
74778;BME280;63298;53.164;8.610;2023-08-06T12:08:52;100566.13;;;22.31;58.49
74778;BME280;63298;53.164;8.610;2023-08-06T12:11:21;100577.19;;;22.28;58.70
74778;BME280;63298;53.164;8.610;2023-08-06T12:13:50;100563.13;;;22.06;58.63
74778;BME280;63298;53.164;8.610;2023-08-06T12:16:16;100579.72;;;22.16;58.97
74778;BME280;63298;53.164;8.610;2023-08-06T12:18:41;100570.56;;;22.02;59.08
74778;BME280;63298;53.164;8.610;2023-08-06T12:21:06;100563.66;;;22.08;59.30
74778;BME280;63298;53.164;8.610;2023-08-06T12:23:32;100552.13;;;22.09;58.98
74778;BME280;63298;53.164;8.610;2023-08-06T12:25:57;100564.72;;;22.20;58.83
74778;BME280;63298;53.164;8.610;2023-08-06T12:28:23;100562.59;;;22.26;59.03
74778;BME280;63298;53.164;8.610;2023-08-06T12:30:48;100552.72;;;22.28;58.90
74778;BME280;63298;53.164;8.610;2023-08-06T12:33:13;100557.94;;;22.21;58.58
74778;BME280;63298;53.164;8.610;2023-08-06T12:35:39;100556.63;;;22.19;58.03
74778;BME280;63298;53.164;8.610;2023-08-06T12:38:04;100549.63;;;22.08;58.39
74778;BME280;63298;53.164;8.610;2023-08-06T12:40:29;100561.81;;;22.03;58.53
74778;BME280;63298;53.164;8.610;2023-08-06T12:42:56;100545.88;;;21.76;58.30
74778;BME280;63298;53.164;8.610;2023-08-06T12:45:24;100556.38;;;21.84;58.33
74778;BME280;63298;53.164;8.610;2023-08-06T12:47:49;100549.28;;;21.87;58.51
74778;BME280;63298;53.164;8.610;2023-08-06T12:50:15;100550.41;;;22.00;58.74
74778;BME280;63298;53.164;8.610;2023-08-06T12:52:40;100558.16;;;22.25;58.27
74778;BME280;63298;53.164;8.610;2023-08-06T12:55:06;100539.94;;;22.53;57.78
74778;BME280;63298;53.164;8.610;2023-08-06T12:57:31;100550.00;;;22.85;57.41
74778;BME280;63298;53.164;8.610;2023-08-06T12:59:56;100556.00;;;23.01;56.23